Time;durP1;ratioP1;P1;durP2;ratioP2;P2;SDS_P1;SDS_P2;PMS_P1;PMS_P2;Temp;Humidity;BMP_temperature;BMP_pressure;BME280_temperature;BME280_humidity;BME280_pressure;Samples;Min_cycle;Max_cycle;Signal;HPM_P1;HPM_P2
2024/01/01 00:01:24;;;;;;;22.70;16.08;;;7.60;99.90;;;;;;5034643;28;20084;-77
2024/01/01 00:03:49;;;;;;;17.35;12.90;;;7.70;99.90;;;;;;5032890;28;20052;-77
2024/01/01 00:06:15;;;;;;;18.20;13.40;;;7.70;99.90;;;;;;5034319;28;20092;-76
2024/01/01 00:08:41;;;;;;;14.07;11.30;;;7.80;99.90;;;;;;5033744;28;20046;-77
2024/01/01 00:11:07;;;;;;;21.83;15.45;;;7.70;99.90;;;;;;5033737;28;20091;-76
2024/01/01 00:13:33;;;;;;;20.08;13.52;;;7.80;99.90;;;;;;5033685;28;20049;-77
2024/01/01 00:15:58;;;;;;;20.73;13.77;;;7.90;99.90;;;;;;5032670;28;20363;-77
2024/01/01 00:18:24;;;;;;;21.98;15.93;;;7.80;99.90;;;;;;5015941;28;20046;-77
2024/01/01 00:20:50;;;;;;;24.13;16.63;;;7.90;99.90;;;;;;5033603;28;20045;-77
2024/01/01 00:23:15;;;;;;;22.90;17.60;;;7.90;99.90;;;;;;5032827;28;20492;-77
2024/01/01 00:25:41;;;;;;;22.33;15.20;;;7.90;99.90;;;;;;5033863;28;20422;-77
2024/01/01 00:28:07;;;;;;;30.15;19.13;;;8.00;99.90;;;;;;5033958;28;20050;-77
2024/01/01 00:30:33;;;;;;;23.05;17.73;;;8.00;99.90;;;;;;5033379;28;20061;-77
2024/01/01 00:32:59;;;;;;;22.38;19.17;;;8.00;99.90;;;;;;5033775;28;20118;-77
2024/01/01 00:35:25;;;;;;;31.13;19.90;;;8.00;99.90;;;;;;5033453;28;20124;-77
2024/01/01 00:37:51;;;;;;;31.90;24.00;;;8.00;99.90;;;;;;5033063;28;20351;-77
2024/01/01 00:40:16;;;;;;;31.80;23.75;;;8.00;99.90;;;;;;5033349;28;20046;-77
2024/01/01 00:42:43;;;;;;;24.42;17.70;;;8.10;99.90;;;;;;5032649;28;20052;-77
2024/01/01 00:45:09;;;;;;;26.42;17.65;;;8.10;99.90;;;;;;5032448;28;20057;-77
2024/01/01 00:47:35;;;;;;;23.20;14.35;;;8.10;99.90;;;;;;5033489;28;20053;-78
2024/01/01 00:50:01;;;;;;;22.00;15.48;;;8.10;99.90;;;;;;5033424;28;20042;-78
2024/01/01 00:52:26;;;;;;;16.80;13.02;;;8.20;99.90;;;;;;5033087;28;20095;-77
2024/01/01 00:54:52;;;;;;;13.85;11.25;;;8.10;99.90;;;;;;5033221;28;20048;-77
2024/01/01 00:57:18;;;;;;;14.15;10.05;;;8.20;99.90;;;;;;5015781;28;20101;-77
2024/01/01 00:59:44;;;;;;;16.17;11.45;;;8.20;99.90;;;;;;5034125;28;20081;-77
2024/01/01 01:02:09;;;;;;;17.27;11.07;;;8.20;99.90;;;;;;5032008;28;20053;-77
2024/01/01 01:04:35;;;;;;;13.55;11.82;;;8.20;99.90;;;;;;5032050;28;20047;-77
2024/01/01 01:07:02;;;;;;;14.77;10.95;;;8.10;99.90;;;;;;5033071;28;20046;-77
2024/01/01 01:09:28;;;;;;;12.95;10.85;;;8.20;99.90;;;;;;5032545;28;20062;-76
2024/01/01 01:11:54;;;;;;;15.63;10.27;;;8.20;99.90;;;;;;5033088;28;20053;-77
2024/01/01 01:14:19;;;;;;;14.30;9.23;;;8.20;99.90;;;;;;5033023;28;20143;-77
2024/01/01 01:16:46;;;;;;;10.48;8.48;;;8.10;99.90;;;;;;5032084;28;20072;-76
2024/01/01 01:19:11;;;;;;;14.75;9.82;;;8.00;99.90;;;;;;5032044;28;20064;-77
2024/01/01 01:21:37;;;;;;;14.55;11.68;;;8.00;99.90;;;;;;5032972;28;20045;-77
2024/01/01 01:24:04;;;;;;;19.38;12.70;;;8.00;99.90;;;;;;5032853;28;20044;-77
2024/01/01 01:26:29;;;;;;;16.55;12.10;;;8.10;99.90;;;;;;5032064;28;20048;-77
2024/01/01 01:28:56;;;;;;;12.93;10.20;;;8.00;99.90;;;;;;5032929;28;20492;-77
2024/01/01 01:31:23;;;;;;;18.58;12.23;;;8.10;99.90;;;;;;5032917;28;20060;-77
2024/01/01 01:33:49;;;;;;;15.63;10.32;;;8.10;99.90;;;;;;5031883;28;20052;-77
2024/01/01 01:36:14;;;;;;;19.23;10.68;;;8.10;99.90;;;;;;5032230;28;20099;-77
2024/01/01 01:38:40;;;;;;;16.33;11.57;;;8.20;99.90;;;;;;5036398;28;20046;-76
2024/01/01 01:41:06;;;;;;;15.30;13.70;;;8.20;99.90;;;;;;5036362;28;20054;-76
2024/01/01 01:43:32;;;;;;;17.92;11.65;;;8.20;99.90;;;;;;5019795;28;20077;-77
2024/01/01 01:45:58;;;;;;;14.25;9.50;;;8.20;99.90;;;;;;5036366;28;20132;-77
2024/01/01 01:48:26;;;;;;;17.75;11.52;;;8.10;99.90;;;;;;5035107;28;20556;-77
2024/01/01 01:50:52;;;;;;;15.25;11.68;;;8.10;99.90;;;;;;5036187;28;20045;-77
2024/01/01 01:53:23;;;;;;;14.75;9.48;;;8.10;99.90;;;;;;5036016;28;20049;-77
2024/01/01 01:55:52;;;;;;;11.65;9.60;;;8.10;99.90;;;;;;5036495;28;20124;-76
2024/01/01 01:58:18;;;;;;;14.45;9.52;;;8.10;99.90;;;;;;5034888;28;20482;-76
2024/01/01 02:00:47;;;;;;;16.25;10.18;;;8.10;99.90;;;;;;5035977;28;20092;-76
2024/01/01 02:03:14;;;;;;;13.48;9.30;;;8.10;99.90;;;;;;5036089;28;20120;-75
2024/01/01 02:05:39;;;;;;;14.50;8.77;;;8.20;99.90;;;;;;5036544;28;20053;-77
2024/01/01 02:08:06;;;;;;;15.48;14.07;;;8.10;99.90;;;;;;5035963;28;20055;-77
2024/01/01 02:10:32;;;;;;;15.98;11.25;;;8.10;99.90;;;;;;5034701;28;20045;-76
2024/01/01 02:12:59;;;;;;;9.30;7.18;;;8.10;99.90;;;;;;5035870;28;20076;-76
2024/01/01 02:15:25;;;;;;;15.38;13.82;;;8.20;99.90;;;;;;5034884;28;20478;-76
2024/01/01 02:17:51;;;;;;;12.05;9.98;;;8.10;99.90;;;;;;5035623;28;20489;-76
2024/01/01 02:20:17;;;;;;;16.02;13.27;;;8.10;99.90;;;;;;5035649;28;20090;-77
2024/01/01 02:22:43;;;;;;;16.48;11.48;;;8.20;99.90;;;;;;5035634;28;20088;-76
2024/01/01 02:25:09;;;;;;;13.25;11.00;;;8.10;99.90;;;;;;5034627;28;20045;-77
2024/01/01 02:27:39;;;;;;;16.42;10.10;;;8.10;99.90;;;;;;5035587;28;20085;-77
2024/01/01 02:30:12;;;;;;;16.17;14.68;;;8.10;99.90;;;;;;5035500;28;20451;-77
2024/01/01 02:32:38;;;;;;;15.27;9.50;;;8.00;99.90;;;;;;5035385;28;20050;-76
2024/01/01 02:35:08;;;;;;;15.50;9.20;;;8.00;99.90;;;;;;5034344;28;20399;-76
2024/01/01 02:37:35;;;;;;;12.50;9.70;;;8.00;99.90;;;;;;5034238;28;20505;-76
2024/01/01 02:40:01;;;;;;;9.95;8.95;;;8.00;99.90;;;;;;5034413;28;20080;-77
2024/01/01 02:42:29;;;;;;;9.88;7.88;;;8.00;99.90;;;;;;5035335;28;20045;-76
2024/01/01 02:44:55;;;;;;;10.80;9.63;;;7.90;99.90;;;;;;5035283;28;20053;-76
2024/01/01 02:47:20;;;;;;;13.15;7.25;;;7.90;99.90;;;;;;5033788;28;20111;-76
2024/01/01 02:49:46;;;;;;;11.63;6.82;;;8.00;99.90;;;;;;5034246;28;20057;-76
2024/01/01 02:52:12;;;;;;;11.00;9.95;;;7.90;99.90;;;;;;5035921;28;20083;-77
2024/01/01 02:54:37;;;;;;;8.73;6.93;;;7.90;99.90;;;;;;5034914;28;20490;-77
2024/01/01 02:57:03;;;;;;;8.38;5.82;;;7.80;99.90;;;;;;5035046;28;20053;-76
2024/01/01 02:59:29;;;;;;;11.45;8.25;;;7.80;99.90;;;;;;5034838;28;20128;-76
2024/01/01 03:01:55;;;;;;;12.07;7.40;;;7.70;99.90;;;;;;5034970;28;20505;-77
2024/01/01 03:04:20;;;;;;;7.72;6.22;;;7.70;99.90;;;;;;5034893;28;20041;-77
2024/01/01 03:06:46;;;;;;;19.02;17.73;;;7.70;99.90;;;;;;5033657;28;20466;-76
2024/01/01 03:09:12;;;;;;;15.10;14.02;;;7.60;99.90;;;;;;5035531;28;20056;-76
2024/01/01 03:11:38;;;;;;;9.43;6.28;;;7.40;99.90;;;;;;5034691;28;20057;-76
2024/01/01 03:14:04;;;;;;;5.85;5.25;;;7.20;99.90;;;;;;5033763;28;20041;-76
2024/01/01 03:16:30;;;;;;;7.28;5.68;;;7.10;99.90;;;;;;5034529;28;20065;-75
2024/01/01 03:18:55;;;;;;;6.43;5.47;;;7.10;99.90;;;;;;5017188;28;20054;-76
2024/01/01 03:21:21;;;;;;;6.18;4.63;;;7.20;99.90;;;;;;5034524;28;20049;-77
2024/01/01 03:23:47;;;;;;;6.70;5.68;;;7.20;99.90;;;;;;5035053;28;20049;-77
2024/01/01 03:26:12;;;;;;;7.57;4.45;;;7.30;99.90;;;;;;5033353;28;20534;-76
2024/01/01 03:28:38;;;;;;;5.03;3.88;;;7.30;99.90;;;;;;5034249;28;20493;-76
2024/01/01 03:31:04;;;;;;;5.85;4.60;;;7.30;99.90;;;;;;5034380;28;20056;-76
2024/01/01 03:33:34;;;;;;;4.57;4.15;;;7.30;99.90;;;;;;5034295;28;20052;-77
2024/01/01 03:36:00;;;;;;;7.55;4.28;;;7.30;99.90;;;;;;5033635;28;20049;-76
2024/01/01 03:38:25;;;;;;;5.78;5.22;;;7.30;99.90;;;;;;5033551;28;20107;-76
2024/01/01 03:40:51;;;;;;;7.88;6.93;;;7.10;99.90;;;;;;5034879;28;20045;-76
2024/01/01 03:43:17;;;;;;;10.45;9.85;;;7.00;99.90;;;;;;5034251;28;20052;-75
2024/01/01 03:45:42;;;;;;;7.65;5.30;;;6.80;99.90;;;;;;5033943;28;20045;-76
2024/01/01 03:48:08;;;;;;;4.80;4.40;;;6.60;99.90;;;;;;5033819;28;20057;-75
2024/01/01 03:50:34;;;;;;;5.88;4.93;;;6.60;99.90;;;;;;5033044;28;20050;-75
2024/01/01 03:53:00;;;;;;;7.28;5.15;;;6.50;99.90;;;;;;5033873;28;20052;-76
2024/01/01 03:55:26;;;;;;;5.78;4.80;;;6.50;99.90;;;;;;5033811;28;20058;-76
2024/01/01 03:57:52;;;;;;;5.78;4.70;;;6.50;99.90;;;;;;5033561;28;20371;-76
2024/01/01 04:00:18;;;;;;;5.45;4.95;;;6.60;99.90;;;;;;5034001;28;20050;-76
2024/01/01 04:02:46;;;;;;;7.60;7.00;;;6.10;99.90;;;;;;5032585;28;20100;-76
2024/01/01 04:05:12;;;;;;;5.18;4.20;;;6.60;99.90;;;;;;5033900;28;20053;-76
2024/01/01 04:07:38;;;;;;;6.75;5.95;;;6.70;99.90;;;;;;5033817;28;20049;-76
2024/01/01 04:10:06;;;;;;;5.32;3.95;;;6.70;99.90;;;;;;5033750;28;20120;-76
2024/01/01 04:12:31;;;;;;;6.22;3.80;;;6.70;99.90;;;;;;5033482;28;20045;-76
2024/01/01 04:14:57;;;;;;;6.18;3.97;;;6.70;99.90;;;;;;5015940;28;20099;-77
2024/01/01 04:17:22;;;;;;;4.38;3.88;;;6.70;99.90;;;;;;5033265;28;20041;-76
2024/01/01 04:19:48;;;;;;;4.35;3.67;;;6.80;99.90;;;;;;5032640;28;20049;-76
2024/01/01 04:22:18;;;;;;;4.93;4.53;;;6.80;99.90;;;;;;5032608;28;20086;-77
2024/01/01 04:24:44;;;;;;;4.90;4.47;;;6.80;99.90;;;;;;5033467;28;20402;-77
2024/01/01 04:27:10;;;;;;;4.45;4.15;;;6.70;99.90;;;;;;5032616;28;20033;-77
2024/01/01 04:29:36;;;;;;;4.88;4.47;;;6.80;99.90;;;;;;5032490;28;20045;-76
2024/01/01 04:32:02;;;;;;;3.88;3.50;;;6.80;99.90;;;;;;5033582;28;20431;-77
2024/01/01 04:34:28;;;;;;;5.35;4.82;;;6.80;99.90;;;;;;5033511;28;20366;-77
2024/01/01 04:36:54;;;;;;;4.43;4.03;;;6.80;99.90;;;;;;5033337;28;20037;-76
2024/01/01 04:39:19;;;;;;;6.90;3.47;;;6.80;99.90;;;;;;5034135;28;20045;-77
2024/01/01 04:41:45;;;;;;;5.25;4.75;;;6.80;99.90;;;;;;5033315;28;20045;-77
2024/01/01 04:44:11;;;;;;;4.18;3.88;;;6.80;99.90;;;;;;5033217;28;20351;-77
2024/01/01 04:46:37;;;;;;;7.75;4.40;;;6.80;99.90;;;;;;5033027;28;20060;-76
2024/01/01 04:49:03;;;;;;;4.70;4.00;;;6.70;99.90;;;;;;5033414;28;20050;-75
2024/01/01 04:51:28;;;;;;;4.30;3.90;;;6.70;99.90;;;;;;5033393;28;20077;-76
2024/01/01 04:53:54;;;;;;;9.30;4.28;;;6.60;99.90;;;;;;5032039;28;20130;-76
2024/01/01 04:56:21;;;;;;;8.57;4.28;;;6.60;99.90;;;;;;5033264;28;20406;-76
2024/01/01 04:58:48;;;;;;;5.38;3.85;;;6.60;99.90;;;;;;5032538;28;20046;-76
2024/01/01 05:01:13;;;;;;;4.25;3.65;;;6.50;99.90;;;;;;5032335;28;20045;-77
2024/01/01 05:03:39;;;;;;;4.85;3.90;;;6.50;99.90;;;;;;5032208;28;20061;-76
2024/01/01 05:06:05;;;;;;;5.35;4.00;;;6.50;99.90;;;;;;5033195;28;20049;-75
2024/01/01 05:08:32;;;;;;;5.35;3.58;;;6.50;99.90;;;;;;5032093;28;20150;-75
2024/01/01 05:10:58;;;;;;;4.82;4.40;;;6.50;99.90;;;;;;5033169;28;20132;-76
2024/01/01 05:13:23;;;;;;;4.93;4.15;;;6.40;99.90;;;;;;5036236;28;20142;-75
2024/01/01 05:15:49;;;;;;;7.68;4.40;;;6.50;99.90;;;;;;5037460;28;20143;-75
2024/01/01 05:18:15;;;;;;;5.13;3.70;;;6.40;99.90;;;;;;5036791;28;20052;-76
2024/01/01 05:20:41;;;;;;;5.82;4.25;;;6.40;99.90;;;;;;5019869;28;20053;-74
2024/01/01 05:23:07;;;;;;;4.55;3.85;;;6.40;99.90;;;;;;5037307;28;20050;-75
2024/01/01 05:25:33;;;;;;;5.68;4.18;;;6.40;99.90;;;;;;5036705;28;20447;-74
2024/01/01 05:27:58;;;;;;;5.80;4.80;;;6.40;99.90;;;;;;5035855;28;20053;-75
2024/01/01 05:30:27;;;;;;;4.82;4.25;;;6.50;99.90;;;;;;5036746;28;20482;-74
2024/01/01 05:32:53;;;;;;;5.05;4.57;;;6.40;99.90;;;;;;5036587;28;20045;-75
2024/01/01 05:35:18;;;;;;;6.35;5.25;;;6.40;99.90;;;;;;5036582;28;20068;-75
2024/01/01 05:37:44;;;;;;;5.25;4.10;;;6.40;99.90;;;;;;5035385;28;20045;-74
2024/01/01 05:40:10;;;;;;;6.63;5.25;;;6.40;99.90;;;;;;5036808;28;20048;-75
2024/01/01 05:42:36;;;;;;;6.72;4.82;;;6.50;99.90;;;;;;5036187;28;20053;-75
2024/01/01 05:45:03;;;;;;;7.60;5.40;;;6.50;99.90;;;;;;5036165;28;20103;-75
2024/01/01 05:47:28;;;;;;;4.47;4.05;;;6.50;99.90;;;;;;5036217;28;20057;-75
2024/01/01 05:49:54;;;;;;;6.15;5.20;;;6.50;99.90;;;;;;5036226;28;20076;-75
2024/01/01 05:52:21;;;;;;;6.65;4.10;;;6.50;99.90;;;;;;5035255;28;20398;-75
2024/01/01 05:54:48;;;;;;;7.97;4.30;;;6.50;99.90;;;;;;5035164;28;20049;-75
2024/01/01 05:57:14;;;;;;;4.63;4.20;;;6.50;99.90;;;;;;5035130;28;20175;-75
2024/01/01 05:59:39;;;;;;;7.88;5.43;;;6.50;99.90;;;;;;5035890;28;20143;-75
2024/01/01 06:02:05;;;;;;;10.60;4.57;;;6.60;99.90;;;;;;5035843;28;20053;-75
2024/01/01 06:04:31;;;;;;;6.68;4.70;;;6.50;99.90;;;;;;5018591;28;20045;-75
2024/01/01 06:06:56;;;;;;;7.53;4.70;;;6.60;99.90;;;;;;5034725;28;20045;-74
2024/01/01 06:09:22;;;;;;;4.97;4.57;;;6.40;99.90;;;;;;5036444;28;20045;-75
2024/01/01 06:11:49;;;;;;;7.78;4.15;;;6.40;99.90;;;;;;5035219;28;20053;-74
2024/01/01 06:14:15;;;;;;;5.97;4.18;;;6.40;99.90;;;;;;5035900;28;20053;-75
2024/01/01 06:16:43;;;;;;;5.25;4.07;;;6.50;99.90;;;;;;5035739;28;20052;-75
2024/01/01 06:19:10;;;;;;;6.70;3.72;;;6.50;99.90;;;;;;5034838;28;20057;-75
2024/01/01 06:21:35;;;;;;;6.60;4.88;;;6.50;99.90;;;;;;5035580;28;20049;-75
2024/01/01 06:24:01;;;;;;;7.13;6.43;;;6.50;99.90;;;;;;5035856;28;20103;-76
2024/01/01 06:26:27;;;;;;;4.80;4.40;;;6.50;99.90;;;;;;5035447;28;20125;-77
2024/01/01 06:28:52;;;;;;;8.18;4.38;;;6.50;99.90;;;;;;5034553;28;20053;-75
2024/01/01 06:31:18;;;;;;;6.80;4.68;;;6.50;99.90;;;;;;5036102;28;20454;-75
2024/01/01 06:33:44;;;;;;;6.47;4.40;;;6.50;99.90;;;;;;5035512;28;20041;-75
2024/01/01 06:36:10;;;;;;;7.07;4.45;;;7.10;99.90;;;;;;5034840;28;20049;-75
2024/01/01 06:38:38;;;;;;;4.63;3.80;;;6.60;99.90;;;;;;5034109;28;20051;-75
2024/01/01 06:41:05;;;;;;;6.78;4.30;;;6.50;99.90;;;;;;5034380;28;20045;-75
2024/01/01 06:43:32;;;;;;;6.15;4.43;;;6.50;99.90;;;;;;5035202;28;20072;-75
2024/01/01 06:45:58;;;;;;;6.55;4.43;;;6.60;99.90;;;;;;5034230;28;20188;-76
2024/01/01 06:48:23;;;;;;;7.13;4.32;;;6.60;99.90;;;;;;5035313;28;20515;-76
2024/01/01 06:50:49;;;;;;;6.13;4.85;;;6.70;99.90;;;;;;5034502;28;20417;-76
2024/01/01 06:53:15;;;;;;;4.53;3.75;;;6.70;99.90;;;;;;5035078;28;20056;-75
2024/01/01 06:55:41;;;;;;;6.45;5.88;;;6.70;99.90;;;;;;5035008;28;20133;-75
2024/01/01 06:58:06;;;;;;;6.65;5.22;;;6.80;99.90;;;;;;5034902;28;20073;-76
2024/01/01 07:00:32;;;;;;;7.53;5.75;;;6.70;99.90;;;;;;5035095;28;20048;-76
2024/01/01 07:02:58;;;;;;;6.75;4.93;;;6.70;99.90;;;;;;5035259;28;20088;-76
2024/01/01 07:05:24;;;;;;;5.10;3.65;;;6.70;99.90;;;;;;5034830;28;20478;-76
2024/01/01 07:07:50;;;;;;;5.38;4.80;;;6.70;99.90;;;;;;5033771;28;20057;-76
2024/01/01 07:10:16;;;;;;;5.43;4.57;;;6.60;99.90;;;;;;5017313;28;20092;-76
2024/01/01 07:12:42;;;;;;;10.15;9.38;;;6.60;99.90;;;;;;5033763;28;20077;-76
2024/01/01 07:15:08;;;;;;;8.15;5.38;;;6.60;99.90;;;;;;5034640;28;20053;-76
2024/01/01 07:17:33;;;;;;;5.72;5.05;;;6.60;99.90;;;;;;5034552;28;20051;-76
2024/01/01 07:20:00;;;;;;;5.97;4.43;;;6.60;99.90;;;;;;5035168;28;20045;-75
2024/01/01 07:22:26;;;;;;;5.72;5.22;;;6.60;99.90;;;;;;5034653;28;20092;-76
2024/01/01 07:24:51;;;;;;;7.97;5.05;;;6.60;99.90;;;;;;5034470;28;20083;-76
2024/01/01 07:27:17;;;;;;;7.32;4.80;;;6.60;99.90;;;;;;5034553;28;20054;-76
2024/01/01 07:29:43;;;;;;;5.78;5.18;;;6.60;99.90;;;;;;5034467;28;20049;-75
2024/01/01 07:32:08;;;;;;;5.07;4.18;;;6.60;99.90;;;;;;5033458;28;20496;-75
2024/01/01 07:34:35;;;;;;;7.45;6.07;;;6.50;99.90;;;;;;5034249;28;20175;-76
2024/01/01 07:37:01;;;;;;;7.78;7.15;;;6.60;99.90;;;;;;5033937;28;20494;-76
2024/01/01 07:39:29;;;;;;;6.05;4.90;;;6.50;99.90;;;;;;5034761;28;20046;-75
2024/01/01 07:41:55;;;;;;;5.60;4.45;;;6.50;99.90;;;;;;5034227;28;20128;-75
2024/01/01 07:44:21;;;;;;;6.03;4.72;;;6.50;99.90;;;;;;5034704;28;20130;-76
2024/01/01 07:46:48;;;;;;;5.53;5.03;;;6.50;99.90;;;;;;5033624;28;20049;-76
2024/01/01 07:49:14;;;;;;;6.93;6.32;;;6.80;99.90;;;;;;5034756;28;20084;-76
2024/01/01 07:51:40;;;;;;;6.22;5.63;;;6.50;99.90;;;;;;5034034;28;20057;-77
2024/01/01 07:54:06;;;;;;;8.02;5.75;;;6.50;99.90;;;;;;5032657;28;20053;-75
2024/01/01 07:56:32;;;;;;;8.32;5.82;;;6.50;99.90;;;;;;5033952;28;20055;-75
2024/01/01 07:58:58;;;;;;;6.88;5.05;;;6.50;99.90;;;;;;5034482;28;20104;-76
2024/01/01 08:01:27;;;;;;;6.40;5.20;;;6.50;99.90;;;;;;5032976;28;20542;-77
2024/01/01 08:03:52;;;;;;;6.80;5.85;;;6.60;99.90;;;;;;5032453;28;20119;-76
2024/01/01 08:06:18;;;;;;;5.95;5.43;;;6.60;99.90;;;;;;5033573;28;20041;-77
2024/01/01 08:08:44;;;;;;;8.20;6.30;;;6.60;99.90;;;;;;5033854;28;20124;-76
2024/01/01 08:11:10;;;;;;;5.97;5.43;;;6.60;99.90;;;;;;5033861;28;20425;-75
2024/01/01 08:13:36;;;;;;;11.07;8.27;;;6.60;99.90;;;;;;5033470;28;20049;-75
2024/01/01 08:16:02;;;;;;;20.00;18.90;;;6.60;99.90;;;;;;5033475;28;20128;-76
2024/01/01 08:18:28;;;;;;;4.85;4.35;;;6.70;99.90;;;;;;5033457;28;20081;-77
2024/01/01 08:20:54;;;;;;;8.82;6.28;;;6.80;99.90;;;;;;5032081;28;20077;-76
2024/01/01 08:23:20;;;;;;;6.55;4.60;;;6.80;99.90;;;;;;5032581;28;20120;-75
2024/01/01 08:25:46;;;;;;;7.03;4.90;;;6.80;99.90;;;;;;5032453;28;20137;-76
2024/01/01 08:28:12;;;;;;;8.10;4.53;;;6.80;99.90;;;;;;5033766;28;20049;-75
2024/01/01 08:30:43;;;;;;;8.65;4.72;;;6.80;99.90;;;;;;5032594;28;20049;-76
2024/01/01 08:33:09;;;;;;;7.13;4.40;;;6.80;99.90;;;;;;5032582;28;20536;-75
2024/01/01 08:35:35;;;;;;;5.70;5.20;;;6.80;99.90;;;;;;5033475;28;20409;-76
2024/01/01 08:38:01;;;;;;;5.95;4.13;;;6.80;99.90;;;;;;5032985;28;20046;-75
2024/01/01 08:40:27;;;;;;;8.55;4.78;;;6.80;99.90;;;;;;5032389;28;20045;-75
2024/01/01 08:42:52;;;;;;;7.00;5.15;;;6.80;99.90;;;;;;5033415;28;20490;-75
2024/01/01 08:45:21;;;;;;;5.20;4.28;;;6.80;99.90;;;;;;5033312;28;20049;-76
2024/01/01 08:47:47;;;;;;;5.65;4.18;;;6.90;99.90;;;;;;5020855;28;20089;-75
2024/01/01 08:50:15;;;;;;;6.88;4.50;;;6.90;99.90;;;;;;5037439;28;20085;-76
2024/01/01 08:52:45;;;;;;;6.93;4.35;;;6.90;99.90;;;;;;5037389;28;20052;-76
2024/01/01 08:55:11;;;;;;;5.07;4.57;;;6.90;99.90;;;;;;5037701;28;20504;-75
2024/01/01 08:57:37;;;;;;;5.50;5.05;;;6.90;99.90;;;;;;5037277;28;20057;-75
2024/01/01 09:00:04;;;;;;;8.80;4.10;;;7.00;99.90;;;;;;5037264;28;20050;-75
2024/01/01 09:02:30;;;;;;;7.72;5.43;;;7.00;99.90;;;;;;5036926;28;20510;-83
2024/01/01 09:04:56;;;;;;;5.60;4.63;;;7.00;99.90;;;;;;5003336;28;20095;-86
2024/01/01 09:07:23;;;;;;;5.90;5.40;;;7.00;99.90;;;;;;5036556;28;20045;-85
2024/01/01 09:09:49;;;;;;;6.00;5.10;;;7.10;99.90;;;;;;5020181;28;20048;-77
2024/01/01 09:12:15;;;;;;;5.13;4.18;;;7.00;99.90;;;;;;5036836;28;20053;-76
2024/01/01 09:14:41;;;;;;;8.43;5.03;;;7.00;99.90;;;;;;5036681;28;20148;-76
2024/01/01 09:17:07;;;;;;;6.78;3.78;;;7.00;99.90;;;;;;5019469;28;20096;-75
2024/01/01 09:19:34;;;;;;;5.45;4.57;;;7.00;99.90;;;;;;5036799;28;20049;-76
2024/01/01 09:22:00;;;;;;;5.22;4.55;;;7.00;99.90;;;;;;5036875;28;20083;-76
2024/01/01 09:24:26;;;;;;;5.43;5.03;;;7.10;99.90;;;;;;5036710;28;20062;-76
2024/01/01 09:26:52;;;;;;;6.32;4.40;;;7.10;99.90;;;;;;5037041;28;20119;-76
2024/01/01 09:29:17;;;;;;;6.93;6.28;;;7.00;99.90;;;;;;5035939;28;20042;-76
2024/01/01 09:31:43;;;;;;;5.93;3.83;;;7.00;99.90;;;;;;5036331;28;20084;-76
2024/01/01 09:34:09;;;;;;;4.90;4.50;;;7.00;99.90;;;;;;5036007;28;20073;-76
2024/01/01 09:36:34;;;;;;;5.53;4.18;;;7.00;99.90;;;;;;5036308;28;20046;-78
2024/01/01 09:39:00;;;;;;;6.00;3.97;;;7.00;99.90;;;;;;5036690;28;20470;-76
2024/01/01 09:41:27;;;;;;;4.13;3.47;;;7.10;99.90;;;;;;5035001;28;20053;-76
2024/01/01 09:43:53;;;;;;;4.35;3.95;;;7.10;99.90;;;;;;5035279;28;20057;-76
2024/01/01 09:46:20;;;;;;;5.05;4.07;;;7.20;99.90;;;;;;5036258;28;20041;-76
2024/01/01 09:48:46;;;;;;;8.57;3.40;;;7.20;99.90;;;;;;5034556;28;20066;-76
2024/01/01 09:51:13;;;;;;;5.75;3.03;;;7.20;99.90;;;;;;5035369;28;20076;-78
2024/01/01 09:53:47;;;;;;;5.40;3.92;;;7.20;99.90;;;;;;5036158;28;20057;-77
2024/01/01 09:56:13;;;;;;;5.85;3.30;;;7.10;99.90;;;;;;5035824;28;20135;-77
2024/01/01 09:58:43;;;;;;;5.47;3.90;;;7.20;99.90;;;;;;5035156;28;20145;-76
2024/01/01 10:01:13;;;;;;;9.82;9.05;;;7.10;99.90;;;;;;5034787;28;20052;-77
2024/01/01 10:03:40;;;;;;;5.82;4.85;;;7.20;99.90;;;;;;5035931;28;20059;-76
2024/01/01 10:06:11;;;;;;;6.10;5.68;;;7.20;99.90;;;;;;5034879;28;20504;-75
2024/01/01 10:08:41;;;;;;;6.05;4.05;;;7.10;99.90;;;;;;5035728;28;20037;-77
2024/01/01 10:11:19;;;;;;;8.55;4.65;;;6.90;99.90;;;;;;5035740;28;20111;-76
2024/01/01 10:13:45;;;;;;;9.05;5.40;;;6.90;99.90;;;;;;5036330;28;20364;-79
2024/01/01 10:16:25;;;;;;;7.20;4.85;;;6.80;99.90;;;;;;5034765;28;20045;-77
2024/01/01 10:19:00;;;;;;;6.72;5.43;;;6.70;99.90;;;;;;5034197;28;20088;-78
2024/01/01 10:21:38;;;;;;;4.75;4.07;;;6.70;99.90;;;;;;5035216;28;20068;-77
2024/01/01 10:24:19;;;;;;;5.60;5.13;;;6.70;99.90;;;;;;5035610;28;20128;-77
2024/01/01 10:26:46;;;;;;;7.55;5.10;;;6.70;99.90;;;;;;5035530;28;20122;-78
2024/01/01 10:29:13;;;;;;;8.48;5.25;;;6.70;99.90;;;;;;5034575;28;20508;-78
2024/01/01 10:31:44;;;;;;;9.73;5.53;;;6.70;99.90;;;;;;5035478;28;20045;-77
2024/01/01 10:34:12;;;;;;;4.10;3.67;;;6.80;99.90;;;;;;5036047;28;20061;-78
2024/01/01 10:36:39;;;;;;;8.73;7.35;;;6.80;99.90;;;;;;5034984;28;20460;-77
2024/01/01 10:39:12;;;;;;;6.88;4.57;;;6.80;99.90;;;;;;5033928;28;20402;-77
2024/01/01 10:41:39;;;;;;;4.45;4.05;;;6.80;99.90;;;;;;5035065;28;20057;-78
2024/01/01 10:44:09;;;;;;;6.20;5.63;;;6.80;99.90;;;;;;5034531;28;20383;-77
2024/01/01 10:46:39;;;;;;;7.60;5.13;;;6.80;99.90;;;;;;5035120;28;20100;-76
2024/01/01 10:49:15;;;;;;;8.05;5.13;;;6.80;99.90;;;;;;5035124;28;20188;-76
2024/01/01 10:52:14;;;;;;;9.48;6.25;;;6.90;99.90;;;;;;5034940;28;20118;-77
2024/01/01 10:55:28;;;;;;;5.57;4.43;;;7.00;99.90;;;;;;5033982;28;20482;-76
2024/01/01 10:58:19;;;;;;;5.22;3.50;;;7.00;99.90;;;;;;5034562;28;20378;-76
2024/01/01 11:00:53;;;;;;;4.82;3.50;;;7.00;99.90;;;;;;5034242;28;20132;-77
2024/01/01 11:03:19;;;;;;;6.25;3.17;;;7.00;99.90;;;;;;5035600;28;20055;-76
2024/01/01 11:05:47;;;;;;;5.35;3.33;;;7.00;99.90;;;;;;5034778;28;20105;-77
2024/01/01 11:08:13;;;;;;;5.20;3.50;;;7.00;99.90;;;;;;5034720;28;20042;-76
2024/01/01 11:10:49;;;;;;;4.03;3.50;;;7.00;99.90;;;;;;5033562;28;20050;-76
2024/01/01 11:13:26;;;;;;;6.90;3.10;;;7.00;99.90;;;;;;5034512;28;20100;-77
2024/01/01 11:16:06;;;;;;;4.75;3.33;;;7.10;99.90;;;;;;5034181;28;20140;-76
2024/01/01 11:18:35;;;;;;;3.72;3.00;;;7.10;99.90;;;;;;5033516;28;20045;-79
2024/01/01 11:21:02;;;;;;;7.38;3.13;;;7.10;99.90;;;;;;5033516;28;20546;-76
2024/01/01 11:23:47;;;;;;;4.43;3.20;;;7.20;99.90;;;;;;5033482;28;20049;-77
2024/01/01 11:26:32;;;;;;;3.83;3.10;;;7.20;99.90;;;;;;5034451;28;20041;-76
2024/01/01 11:29:03;;;;;;;3.42;3.13;;;7.10;99.90;;;;;;5033528;28;20061;-75
2024/01/01 11:31:29;;;;;;;4.93;4.45;;;7.10;99.90;;;;;;5034351;28;20053;-76
2024/01/01 11:34:03;;;;;;;3.83;3.50;;;7.10;99.90;;;;;;5033332;28;20048;-75
2024/01/01 11:36:29;;;;;;;4.57;3.90;;;7.10;99.90;;;;;;5034376;28;20041;-76
2024/01/01 11:38:56;;;;;;;6.05;3.45;;;7.00;99.90;;;;;;5032851;28;20052;-76
2024/01/01 11:41:23;;;;;;;5.22;3.75;;;6.90;99.90;;;;;;5034078;28;20394;-76
2024/01/01 11:43:49;;;;;;;4.05;3.47;;;6.90;99.90;;;;;;5034213;28;20045;-76
2024/01/01 11:46:26;;;;;;;11.55;3.63;;;6.80;99.90;;;;;;5035226;28;20123;-75
2024/01/01 11:48:56;;;;;;;7.05;3.67;;;6.80;99.90;;;;;;5032498;28;20045;-76
2024/01/01 11:51:21;;;;;;;3.08;2.63;;;6.90;99.90;;;;;;5032661;28;20056;-77
2024/01/01 11:53:47;;;;;;;4.97;3.00;;;6.90;99.90;;;;;;5033956;28;20120;-75
2024/01/01 11:56:13;;;;;;;4.03;3.10;;;6.90;99.90;;;;;;5034730;28;20091;-75
2024/01/01 11:58:39;;;;;;;3.35;3.05;;;6.90;99.90;;;;;;5033727;28;20048;-75
2024/01/01 12:01:05;;;;;;;2.97;2.78;;;6.90;99.90;;;;;;5032937;28;20486;-75
2024/01/01 12:03:33;;;;;;;3.85;3.05;;;7.00;99.90;;;;;;5033532;28;20075;-76
2024/01/01 12:06:03;;;;;;;5.78;3.97;;;7.10;99.90;;;;;;5032507;28;20068;-76
2024/01/01 12:08:28;;;;;;;5.55;2.85;;;7.20;99.90;;;;;;5033610;28;20076;-78
2024/01/01 12:10:58;;;;;;;4.63;3.78;;;7.30;99.90;;;;;;5033620;28;20056;-77
2024/01/01 12:13:24;;;;;;;7.63;2.90;;;7.30;99.90;;;;;;5033485;28;20140;-77
2024/01/01 12:15:51;;;;;;;6.07;3.13;;;7.30;99.90;;;;;;5032223;28;20552;-78
2024/01/01 12:18:17;;;;;;;6.43;3.08;;;7.30;99.90;;;;;;5033170;28;20124;-77
2024/01/01 12:20:42;;;;;;;5.95;3.70;;;7.40;99.90;;;;;;5032898;28;20136;-76
2024/01/01 12:23:12;;;;;;;4.85;2.83;;;7.40;99.90;;;;;;5016315;28;20049;-76
2024/01/01 12:25:38;;;;;;;7.43;4.00;;;7.50;99.90;;;;;;5033395;28;20053;-75
2024/01/01 12:28:08;;;;;;;4.35;2.90;;;7.60;99.90;;;;;;5033276;28;20041;-75
2024/01/01 12:30:35;;;;;;;4.95;3.00;;;7.60;99.90;;;;;;5032212;28;20383;-76
2024/01/01 12:33:02;;;;;;;4.55;3.35;;;7.60;99.90;;;;;;5032183;28;20088;-75
2024/01/01 12:35:28;;;;;;;7.13;3.40;;;7.60;99.90;;;;;;5032948;28;20118;-76
2024/01/01 12:37:54;;;;;;;4.03;3.70;;;7.60;99.90;;;;;;5033228;28;20092;-77
2024/01/01 12:40:20;;;;;;;6.82;5.55;;;7.60;99.90;;;;;;5032238;28;20458;-78
2024/01/01 12:42:46;;;;;;;3.92;3.45;;;7.60;99.90;;;;;;5032136;28;20057;-76
2024/01/01 12:45:16;;;;;;;6.63;6.00;;;7.50;99.90;;;;;;5032054;28;20509;-77
2024/01/01 12:47:42;;;;;;;4.47;2.72;;;7.60;99.90;;;;;;5031905;28;20478;-76
2024/01/01 12:50:08;;;;;;;5.93;3.72;;;7.50;99.90;;;;;;5032947;28;20060;-78
2024/01/01 12:52:35;;;;;;;4.82;3.70;;;7.50;99.90;;;;;;5032133;28;20505;-78